This is the latest recevied weather packets stored in our database for station/object KC2TER. If no packets are shown the sender has not sent any weather packets the latest 10 day(s).
| Time | Temp. | Humidity | Pressure | Rain* | Wind** | Luminosity | Snow |
|---|---|---|---|---|---|---|---|
| 1777669796 | 16.11° C | 65% | 1011 hPa | 0 mm | - | 64 W/m² | - |
| 1777669492 | 16.11° C | 66% | 1011.1 hPa | 0 mm | - | 66 W/m² | - |
| 1777669189 | 16.67° C | 63% | 1011.1 hPa | 0 mm | - | 259 W/m² | - |
| 1777668886 | 16.11° C | 64% | 1011.1 hPa | 0 mm | - | 279 W/m² | - |
| 1777668583 | 16.11° C | 64% | 1010.9 hPa | 0 mm | - | 300 W/m² | - |
| 1777668279 | 16.67° C | 62% | 1011 hPa | 0 mm | - | 304 W/m² | - |
| 1777667975 | 16.67° C | 63% | 1011 hPa | 0 mm | - | 326 W/m² | - |
| 1777667673 | 16.67° C | 62% | 1011.1 hPa | 0 mm | - | 343 W/m² | - |
| 1777667370 | 16.11° C | 63% | 1011 hPa | 0 mm | - | 353 W/m² | - |
| 1777667067 | 16.11° C | 63% | 1011 hPa | 0 mm | - | 391 W/m² | - |
| 1777666763 | 16.11° C | 64% | 1011.1 hPa | 0 mm | - | 385 W/m² | - |
| 1777666461 | 16.11° C | 63% | 1011.2 hPa | 0 mm | - | 418 W/m² | - |
| 1777666157 | 16.11° C | 63% | 1011 hPa | 0 mm | - | 417 W/m² | - |
| 1777665854 | 16.11° C | 63% | 1011.1 hPa | 0 mm | - | 440 W/m² | - |
| 1777665552 | 15.56° C | 64% | 1011.3 hPa | 0 mm | - | 454 W/m² | - |
| 1777665248 | 16.11° C | 62% | 1011.5 hPa | 0 mm | - | 481 W/m² | - |
| 1777664944 | 16.11° C | 63% | 1011.4 hPa | 0 mm | - | 524 W/m² | - |
| 1777664640 | 16.11° C | 61% | 1011.4 hPa | 0 mm | - | 546 W/m² | - |
| 1777664336 | 15.56° C | 62% | 1011.7 hPa | 0 mm | - | 579 W/m² | - |
| 1777664035 | 15.56° C | 62% | 1011.8 hPa | 0 mm | - | 581 W/m² | - |
| 1777663732 | 15.56° C | 61% | 1011.9 hPa | 0 mm | - | 596 W/m² | - |
| 1777663429 | 15° C | 64% | 1012 hPa | 0 mm | - | 590 W/m² | - |
| 1777663126 | 15° C | 63% | 1011.8 hPa | 0 mm | - | 597 W/m² | - |
| 1777662823 | 15° C | 64% | 1012 hPa | 0 mm | - | 641 W/m² | - |
| 1777662520 | 15° C | 65% | 1012 hPa | 0 mm | - | 670 W/m² | - |
* Rain latest hour (hover to see other rain measurements)
** Current wind speed in m/s (hover to see current wind gust speed)